Impacts TAF Board
For situational awareness. Not to be used for flight planning purposes.
IDs:

KIAD - Washington/Dulles In, VA, US

Issued at 0524 UTC 03 Jul 2022
Updated at 0532 UTC 03 Jul 2022
Potential Impact None Slight Moderate High
Time0452Z 03/06Z 03/07Z 03/08Z 03/09Z 03/10Z 03/11Z 03/12Z 03/13Z 03/14Z 03/15Z 03/16Z 03/17Z 03/18Z>>
Type OBS PRVL PRVL
  [TEMP]  
PRVL
  [TEMP]  
PRVL
  [TEMP]  
PRVL PRVL PRVL PRVL PRVL PRVL PRVL PRVL PRVL
VIS 10 >6 >6
  [5]  
>6
  [5]  
>6
  [5]  
>6 >6 >6 >6 >6 >6 >6 >6 >6
CIG 31 50 50
  [50]  
50
  [50]  
50
  [50]  
130 130 130 80 80 80 80 80 80
Cover OVC BKN BKN
  [BKN]  
BKN
  [BKN]  
BKN
  [BKN]  
BKN BKN BKN BKN BKN BKN BKN BKN BKN
FltCat VFR VFR VFR
  [MVFR]  
VFR
  [MVFR]  
VFR
  [MVFR]  
VFR VFR VFR VFR VFR VFR VFR VFR VFR
WX -- VCSH VCSH
  [BR]  
VCSH
  [BR]  
VCSH
  [BR]  
-- -- -- -- -- -- -- -- --
WDir 110 VRB VRB
[VRB]
VRB
[VRB]
VRB
[VRB]
340 340 340 360 360 360 360 360 360
WSpd 3 3 3
  [3]  
3
  [3]  
3
  [3]  
4 4 4 8 8 8 8 8 8
WGst -- -- --
  [--]  
--
  [--]  
--
  [--]  
-- -- -- 16 16 16 16 16 16
WSHgt -- -- --
[--]
--
[--]
--
[--]
-- -- -- -- -- -- -- -- --
WSDir -- -- --
[--]
--
[--]
--
[--]
-- -- -- -- -- -- -- -- --
WSSpd -- -- --
[--]
--
[--]
--
[--]
-- -- -- -- -- -- -- -- --
Raw TAF
KIAD 030524Z 0306/0412 VRB03KT P6SM VCSH SCT025 BKN050 BKN130
  TEMPO 0307/0310 5SM BR
  FM031000 34004KT P6SM SCT050 BKN130
  FM031300 36008G16KT P6SM SCT050 BKN080
  FM031900 33008G16KT P6SM FEW050 SCT250
  FM040000 VRB03KT P6SM FEW250


Raw METAR
KIAD 030452Z 11003KT 10SM BKN031 OVC042 24/21 A2996 RMK AO2 TSE0358 SLP142 OCNL LTGIC DSNT E T02390206 403280239 $
KIAD 030431Z 06003KT 10SM OVC028CB 25/21 A2997 RMK AO2 LTG DSNT E TSE0358 FRQ LTGIC DSNT E CB N-E MOV E T02500211 $
KIAD 030404Z VRB03KT 10SM BKN031CB BKN050 25/21 A2997 RMK AO2 LTG DSNT E TSE0358 FRQ LTGIC DSNT NE AND E CB NW-NE MOV E TS NE MOV E T02500206 $
KIAD 030352Z COR 00000KT 10SM TS SCT029CB BKN033 OVC047 24/21 A2997 RMK AO2 LTG DSNT NE AND E SLP144 CONS LTGIC NE-E TS NE-E MOV E CB NE-E MOV E T02440206 $
KIAD 030314Z 33009G14KT 10SM TS OVC026CB 24/22 A2998 RMK AO2 LTG DSNT NE AND NW LTGIC ALQDS MOV E TS ALQDS MOV E CB OHD MOV E T02440217 $
KIAD 030252Z 00000KT 10SM TS FEW028CB FEW075 SCT210 24/21 A2996 RMK AO2 LTG DSNT NW-E TSB40 SLP143 FRQ LTGIC ALQDS MOV E TS ALQDS MOV E CB NW AND DSNT NE-E MOV E T02440211 50010 $

METAR Board
Radar Display
Forecast Discussion
For situational awareness. Not to be used for flight planning purposes.